Time;durP1;ratioP1;P1;durP2;ratioP2;P2;SDS_P1;SDS_P2;PMS_P1;PMS_P2;Temp;Humidity;BMP_temperature;BMP_pressure;BME280_temperature;BME280_humidity;BME280_pressure;Samples;Min_cycle;Max_cycle;Signal;HPM_P1;HPM_P2
2020/12/02 00:02:29;;;;;;;;;;;1.30;99.90;;;;;;5096114;28;19923;-36
2020/12/02 00:04:56;;;;;;;;;;;1.30;99.90;;;;;;5096443;28;19908;-36
2020/12/02 00:07:21;;;;;;;;;;;1.30;99.90;;;;;;5096045;28;20316;-36
2020/12/02 00:09:47;;;;;;;;;;;1.30;99.90;;;;;;5096054;28;19912;-36
2020/12/02 00:12:13;;;;;;;;;;;1.30;99.90;;;;;;5094232;28;19908;-36
2020/12/02 00:14:38;;;;;;;;;;;1.30;99.90;;;;;;5095931;28;20281;-36
2020/12/02 00:17:04;;;;;;;;;;;1.30;99.90;;;;;;5096102;28;19908;-36
2020/12/02 00:19:30;;;;;;;;;;;1.30;99.90;;;;;;5096103;28;19908;-36
2020/12/02 00:22:07;;;;;;;;;;;1.30;99.90;;;;;;5096068;28;19915;-36
2020/12/02 00:24:34;;;;;;;;;;;1.30;99.90;;;;;;5096049;28;19908;-36
2020/12/02 00:27:00;;;;;;;;;;;1.30;99.90;;;;;;5095998;28;19908;-36
2020/12/02 00:29:26;;;;;;;;;;;1.40;99.90;;;;;;5095916;28;19908;-36
2020/12/02 00:31:51;;;;;;;;;;;1.40;99.90;;;;;;5128517;27;19912;-36
2020/12/02 00:34:17;;;;;;;;;;;1.30;99.90;;;;;;5095554;28;19981;-36
2020/12/02 00:36:43;;;;;;;;;;;1.40;99.90;;;;;;5095696;28;19908;-36
2020/12/02 00:39:09;;;;;;;;;;;1.40;99.90;;;;;;5095695;28;19908;-36
2020/12/02 00:41:35;;;;;;;;;;;1.40;99.90;;;;;;5095064;28;20360;-36
2020/12/02 00:44:00;;;;;;;;;;;1.40;99.90;;;;;;5095631;28;19955;-36
2020/12/02 00:46:26;;;;;;;;;;;1.30;99.90;;;;;;5093758;28;19947;-36
2020/12/02 00:48:52;;;;;;;;;;;1.40;99.90;;;;;;5095536;28;20278;-36
2020/12/02 00:51:18;;;;;;;;;;;1.30;99.90;;;;;;5095232;28;19912;-36
2020/12/02 00:53:44;;;;;;;;;;;1.30;99.90;;;;;;5094900;28;19908;-35
2020/12/02 00:56:11;;;;;;;;;;;1.20;99.90;;;;;;5095126;28;20278;-36
2020/12/02 00:58:42;;;;;;;;;;;1.30;99.90;;;;;;5095411;28;19915;-36
2020/12/02 01:01:09;;;;;;;;;;;1.30;99.90;;;;;;5093757;28;20373;-36
2020/12/02 01:03:34;;;;;;;;;;;1.30;99.90;;;;;;5095233;28;19969;-36
2020/12/02 01:06:01;;;;;;;;;;;1.20;99.90;;;;;;5094693;28;19908;-36
2020/12/02 01:08:34;;;;;;;;;;;1.20;99.90;;;;;;5094856;28;19995;-36
2020/12/02 01:11:00;;;;;;;;;;;1.20;99.90;;;;;;5094608;28;19908;-36
2020/12/02 01:13:25;;;;;;;;;;;1.20;99.90;;;;;;5094864;28;20274;-36
2020/12/02 01:15:51;;;;;;;;;;;1.20;99.90;;;;;;5093508;28;19994;-36
2020/12/02 01:18:22;;;;;;;;;;;1.30;99.90;;;;;;5094787;28;19935;-36
2020/12/02 01:20:53;;;;;;;;;;;1.20;99.90;;;;;;5094900;28;19954;-36
2020/12/02 01:23:18;;;;;;;;;;;1.20;99.90;;;;;;5094650;28;20280;-36
2020/12/02 01:25:44;;;;;;;;;;;1.20;99.90;;;;;;5093854;28;19999;-36
2020/12/02 01:28:14;;;;;;;;;;;1.20;99.90;;;;;;5094544;28;19915;-36
2020/12/02 01:30:41;;;;;;;;;;;1.20;99.90;;;;;;5094581;28;19909;-36
2020/12/02 01:33:07;;;;;;;;;;;1.20;99.90;;;;;;5094509;28;19908;-36
2020/12/02 01:35:33;;;;;;;;;;;1.20;99.90;;;;;;5094764;28;19915;-36
2020/12/02 01:38:01;;;;;;;;;;;1.20;99.90;;;;;;5094207;28;19912;-36
2020/12/02 01:40:31;;;;;;;;;;;1.20;99.90;;;;;;5094557;28;19916;-41
2020/12/02 01:43:01;;;;;;;;;;;1.20;99.90;;;;;;5094301;28;19928;-36
2020/12/02 01:45:34;;;;;;;;;;;1.20;99.90;;;;;;5093980;28;20139;-36
2020/12/02 01:48:02;;;;;;;;;;;1.20;99.90;;;;;;5094530;28;20311;-36
2020/12/02 01:50:31;;;;;;;;;;;1.20;99.90;;;;;;5094030;28;19912;-35
2020/12/02 01:52:56;;;;;;;;;;;1.20;99.90;;;;;;5094779;28;20003;-35
2020/12/02 01:55:24;;;;;;;;;;;1.20;99.90;;;;;;5094223;28;20389;-35
2020/12/02 01:57:51;;;;;;;;;;;1.20;99.90;;;;;;5094214;28;19954;-35
2020/12/02 02:00:20;;;;;;;;;;;1.20;99.90;;;;;;5094469;28;20354;-35
2020/12/02 02:02:55;;;;;;;;;;;1.20;99.90;;;;;;5092558;28;19916;-35
2020/12/02 02:05:27;;;;;;;;;;;1.20;99.90;;;;;;5094157;28;19916;-35
2020/12/02 02:07:53;;;;;;;;;;;1.20;99.90;;;;;;5094403;28;20278;-35
2020/12/02 02:10:36;;;;;;;;;;;1.20;99.90;;;;;;5092568;28;19939;-35
2020/12/02 02:13:04;;;;;;;;;;;1.10;99.90;;;;;;5092746;28;20316;-35
2020/12/02 02:15:35;;;;;;;;;;;1.10;99.90;;;;;;5094293;28;19908;-35
2020/12/02 02:18:05;;;;;;;;;;;1.10;99.90;;;;;;5094595;28;20310;-35
2020/12/02 02:20:32;;;;;;;;;;;1.10;99.90;;;;;;5094506;28;20397;-35
2020/12/02 02:22:59;;;;;;;;;;;1.10;99.90;;;;;;5093969;28;19923;-35
2020/12/02 02:25:24;;;;;;;;;;;1.10;99.90;;;;;;5094508;28;19908;-35
2020/12/02 02:27:50;;;;;;;;;;;1.10;99.90;;;;;;5092674;28;19915;-35
2020/12/02 02:30:16;;;;;;;;;;;1.10;99.90;;;;;;5093930;28;20342;-35
2020/12/02 02:32:42;;;;;;;;;;;1.10;99.90;;;;;;5093940;28;19922;-35
2020/12/02 02:35:11;;;;;;;;;;;1.00;99.90;;;;;;5094091;28;20427;-35
2020/12/02 02:37:36;;;;;;;;;;;1.10;99.90;;;;;;5097572;28;19915;-35
2020/12/02 02:40:04;;;;;;;;;;;1.10;99.90;;;;;;5097765;28;19908;-35
2020/12/02 02:42:32;;;;;;;;;;;1.10;99.90;;;;;;5097286;28;19974;-35
2020/12/02 02:44:59;;;;;;;;;;;1.10;99.90;;;;;;5097929;28;19912;-36
2020/12/02 02:47:24;;;;;;;;;;;1.10;99.90;;;;;;5097938;28;19908;-36
2020/12/02 02:49:50;;;;;;;;;;;1.10;99.90;;;;;;5096043;28;19915;-36
2020/12/02 02:52:16;;;;;;;;;;;1.10;99.90;;;;;;5097552;28;20303;-36
2020/12/02 02:54:42;;;;;;;;;;;1.10;99.90;;;;;;5098054;28;19915;-36
2020/12/02 02:57:08;;;;;;;;;;;1.10;99.90;;;;;;5097434;28;19912;-36
2020/12/02 02:59:33;;;;;;;;;;;1.10;99.90;;;;;;5097964;28;20053;-36
2020/12/02 03:01:59;;;;;;;;;;;1.10;99.90;;;;;;5096985;28;19909;-36
2020/12/02 03:04:24;;;;;;;;;;;1.10;99.90;;;;;;5096050;28;19958;-35
2020/12/02 03:06:50;;;;;;;;;;;1.10;99.90;;;;;;5097564;28;19914;-36
2020/12/02 03:09:16;;;;;;;;;;;1.10;99.90;;;;;;5097726;28;19912;-36
2020/12/02 03:11:41;;;;;;;;;;;1.10;99.90;;;;;;5097163;28;19952;-36
2020/12/02 03:14:08;;;;;;;;;;;1.10;99.90;;;;;;5095584;28;19954;-36
2020/12/02 03:16:53;;;;;;;;;;;1.10;99.90;;;;;;5097348;28;20312;-36
2020/12/02 03:19:20;;;;;;;;;;;1.20;99.90;;;;;;5097582;28;19908;-36
2020/12/02 03:21:47;;;;;;;;;;;1.20;99.90;;;;;;5097298;28;19958;-36
2020/12/02 03:24:13;;;;;;;;;;;1.20;99.90;;;;;;5096960;28;19916;-36
2020/12/02 03:26:39;;;;;;;;;;;1.20;99.90;;;;;;5097209;28;20353;-35
2020/12/02 03:29:05;;;;;;;;;;;1.30;99.90;;;;;;5096856;28;19972;-36
2020/12/02 03:31:31;;;;;;;;;;;1.30;99.90;;;;;;5096926;28;19915;-36
2020/12/02 03:33:57;;;;;;;;;;;1.30;99.90;;;;;;5095224;28;20088;-36
2020/12/02 03:36:22;;;;;;;;;;;1.40;99.90;;;;;;5096997;28;19908;-36
2020/12/02 03:38:49;;;;;;;;;;;1.40;99.90;;;;;;5095147;28;19912;-36
2020/12/02 03:41:15;;;;;;;;;;;1.40;99.90;;;;;;5095332;28;19919;-36
2020/12/02 03:43:40;;;;;;;;;;;1.30;99.90;;;;;;5096312;28;19921;-36
2020/12/02 03:46:06;;;;;;;;;;;1.40;99.90;;;;;;5096555;28;20286;-36
2020/12/02 03:48:32;;;;;;;;;;;1.40;99.90;;;;;;5096088;28;19982;-36
2020/12/02 03:50:58;;;;;;;;;;;1.40;99.90;;;;;;5096448;28;20017;-36
2020/12/02 03:53:23;;;;;;;;;;;1.40;99.90;;;;;;5129271;27;19908;-36
2020/12/02 03:55:49;;;;;;;;;;;1.40;99.90;;;;;;5096627;28;19954;-36
2020/12/02 03:58:15;;;;;;;;;;;1.40;99.90;;;;;;5096286;28;20008;-36
2020/12/02 04:00:41;;;;;;;;;;;1.40;99.90;;;;;;5096556;28;20353;-36
2020/12/02 04:03:06;;;;;;;;;;;1.40;99.90;;;;;;5096394;28;20002;-36
2020/12/02 04:05:32;;;;;;;;;;;1.40;99.90;;;;;;5096091;28;19954;-36
2020/12/02 04:07:58;;;;;;;;;;;1.40;99.90;;;;;;5096309;28;19948;-36
2020/12/02 04:10:23;;;;;;;;;;;1.40;99.90;;;;;;5096018;28;19908;-36
2020/12/02 04:12:49;;;;;;;;;;;1.40;99.90;;;;;;5094729;28;19915;-36
2020/12/02 04:15:15;;;;;;;;;;;1.40;99.90;;;;;;5096200;28;20003;-36
2020/12/02 04:17:41;;;;;;;;;;;1.40;99.90;;;;;;5095629;28;19915;-36
2020/12/02 04:20:07;;;;;;;;;;;1.40;99.90;;;;;;5096181;28;20086;-36
2020/12/02 04:22:33;;;;;;;;;;;1.40;99.90;;;;;;5094142;28;20425;-36
2020/12/02 04:24:58;;;;;;;;;;;1.40;99.90;;;;;;5095733;28;19914;-36
2020/12/02 04:27:24;;;;;;;;;;;1.40;99.90;;;;;;5096275;28;20346;-36
2020/12/02 04:29:49;;;;;;;;;;;1.40;99.90;;;;;;5094122;28;19908;-36
2020/12/02 04:32:15;;;;;;;;;;;1.40;99.90;;;;;;5096167;28;19915;-36
2020/12/02 04:34:41;;;;;;;;;;;1.40;99.90;;;;;;5095591;28;19923;-36
2020/12/02 04:37:06;;;;;;;;;;;1.30;99.90;;;;;;5095860;28;19951;-36
2020/12/02 04:39:32;;;;;;;;;;;1.30;99.90;;;;;;5095653;28;19939;-36
2020/12/02 04:41:57;;;;;;;;;;;1.30;99.90;;;;;;5095165;28;19920;-36
2020/12/02 04:44:23;;;;;;;;;;;1.30;99.90;;;;;;5095641;28;19947;-36
2020/12/02 04:46:52;;;;;;;;;;;1.30;99.90;;;;;;5095615;28;20338;-36
2020/12/02 04:49:21;;;;;;;;;;;1.30;99.90;;;;;;5095224;28;19912;-36
2020/12/02 04:51:50;;;;;;;;;;;1.30;99.90;;;;;;5095193;28;19916;-36
2020/12/02 04:54:17;;;;;;;;;;;1.40;99.90;;;;;;5094860;28;19912;-36
2020/12/02 04:56:44;;;;;;;;;;;1.30;99.90;;;;;;5095167;28;19908;-36
2020/12/02 04:59:10;;;;;;;;;;;1.30;99.90;;;;;;5094962;28;19930;-36
2020/12/02 05:01:45;;;;;;;;;;;1.30;99.90;;;;;;5095315;28;20350;-36
2020/12/02 05:04:19;;;;;;;;;;;1.20;99.90;;;;;;5095238;28;19916;-36
2020/12/02 05:07:08;;;;;;;;;;;1.30;99.90;;;;;;5095238;28;19915;-37
2020/12/02 05:09:35;;;;;;;;;;;1.20;99.90;;;;;;5091882;28;19950;-36
2020/12/02 05:12:02;;;;;;;;;;;1.30;99.90;;;;;;5095144;28;19909;-36
2020/12/02 05:14:37;;;;;;;;;;;1.20;99.90;;;;;;5094588;28;20354;-36
2020/12/02 05:17:14;;;;;;;;;;;1.20;99.90;;;;;;5094760;28;19915;-36
2020/12/02 05:19:40;;;;;;;;;;;1.20;99.90;;;;;;5094992;28;19915;-37
2020/12/02 05:22:10;;;;;;;;;;;1.30;99.90;;;;;;5094834;28;19908;-36
2020/12/02 05:24:43;;;;;;;;;;;1.30;99.90;;;;;;5095170;28;20363;-37
2020/12/02 05:27:11;;;;;;;;;;;1.20;99.90;;;;;;5094231;28;19915;-37
2020/12/02 05:29:37;;;;;;;;;;;1.20;99.90;;;;;;5092809;28;19912;-36
2020/12/02 05:32:05;;;;;;;;;;;1.20;99.90;;;;;;5094417;28;19909;-37
2020/12/02 05:34:31;;;;;;;;;;;1.20;99.90;;;;;;5092932;28;20266;-37
2020/12/02 05:36:59;;;;;;;;;;;1.20;99.90;;;;;;5094408;28;19951;-37
2020/12/02 05:39:28;;;;;;;;;;;1.30;99.90;;;;;;5094492;28;19908;-37
2020/12/02 05:41:54;;;;;;;;;;;1.30;99.90;;;;;;5093799;28;19982;-37
2020/12/02 05:44:27;;;;;;;;;;;1.30;99.90;;;;;;5094396;28;20373;-37
2020/12/02 05:46:58;;;;;;;;;;;1.30;99.90;;;;;;5094348;28;19911;-37
2020/12/02 05:49:44;;;;;;;;;;;1.30;99.90;;;;;;5094377;28;19909;-37
2020/12/02 05:52:28;;;;;;;;;;;1.30;99.90;;;;;;5094089;28;19915;-37
2020/12/02 05:55:01;;;;;;;;;;;1.30;99.90;;;;;;5092529;28;20312;-37
2020/12/02 05:57:27;;;;;;;;;;;1.30;99.90;;;;;;5093929;28;19908;-37
2020/12/02 05:59:55;;;;;;;;;;;1.30;99.90;;;;;;5094903;28;19908;-37
2020/12/02 06:02:22;;;;;;;;;;;1.30;99.90;;;;;;5092722;28;19912;-37
2020/12/02 06:04:49;;;;;;;;;;;1.30;99.90;;;;;;5094464;28;19923;-37
2020/12/02 06:07:15;;;;;;;;;;;1.30;99.90;;;;;;5094672;28;19915;-37
2020/12/02 06:09:42;;;;;;;;;;;1.30;99.90;;;;;;5094025;28;19908;-37
2020/12/02 06:12:12;;;;;;;;;;;1.30;99.90;;;;;;5098125;28;19913;-37
2020/12/02 06:14:38;;;;;;;;;;;1.30;99.90;;;;;;5098235;28;19914;-37
2020/12/02 06:17:04;;;;;;;;;;;1.30;99.90;;;;;;5098401;28;19998;-37
2020/12/02 06:19:30;;;;;;;;;;;1.40;99.90;;;;;;5098599;28;19908;-37
2020/12/02 06:21:55;;;;;;;;;;;1.40;99.90;;;;;;5096415;28;19923;-37
2020/12/02 06:24:39;;;;;;;;;;;1.40;99.90;;;;;;5098004;28;20390;-37
2020/12/02 06:27:17;;;;;;;;;;;1.40;99.90;;;;;;5097646;28;19912;-37
2020/12/02 06:29:44;;;;;;;;;;;1.40;99.90;;;;;;5097514;28;19908;-37
2020/12/02 06:32:14;;;;;;;;;;;1.40;99.90;;;;;;5098109;28;20346;-37
2020/12/02 06:34:41;;;;;;;;;;;1.40;99.90;;;;;;5097921;28;19908;-37
2020/12/02 06:37:11;;;;;;;;;;;1.40;99.90;;;;;;5097956;28;19908;-37
2020/12/02 06:39:41;;;;;;;;;;;1.40;99.90;;;;;;5097811;28;19909;-37
2020/12/02 06:42:27;;;;;;;;;;;1.40;99.90;;;;;;5096994;28;19969;-37
2020/12/02 06:44:59;;;;;;;;;;;1.40;99.90;;;;;;5095827;28;20009;-37
2020/12/02 06:47:27;;;;;;;;;;;1.40;99.90;;;;;;5097580;28;19915;-38
2020/12/02 06:49:55;;;;;;;;;;;1.40;99.90;;;;;;5097434;28;19978;-37
2020/12/02 06:52:23;;;;;;;;;;;1.40;99.90;;;;;;5097698;28;19999;-37
2020/12/02 06:54:49;;;;;;;;;;;1.40;99.90;;;;;;5097315;28;20304;-37
2020/12/02 06:57:15;;;;;;;;;;;1.40;99.90;;;;;;5097290;28;19908;-37
2020/12/02 06:59:55;;;;;;;;;;;1.40;99.90;;;;;;5097601;28;19908;-36
2020/12/02 07:02:37;;;;;;;;;;;1.40;99.90;;;;;;5096830;28;19966;-37
2020/12/02 07:05:08;;;;;;;;;;;1.40;99.90;;;;;;5097447;28;19912;-37
2020/12/02 07:07:33;;;;;;;;;;;1.40;99.90;;;;;;5097733;28;19909;-37
2020/12/02 07:09:59;;;;;;;;;;;1.40;99.90;;;;;;5096653;28;19908;-37
2020/12/02 07:12:26;;;;;;;;;;;1.30;99.90;;;;;;5097279;28;19995;-37
2020/12/02 07:14:52;;;;;;;;;;;1.30;99.90;;;;;;5096775;28;19912;-37
2020/12/02 07:17:21;;;;;;;;;;;1.30;99.90;;;;;;5097354;28;20285;-37
2020/12/02 07:19:48;;;;;;;;;;;1.30;99.90;;;;;;5097170;28;19986;-37
2020/12/02 07:22:26;;;;;;;;;;;1.30;99.90;;;;;;5095225;28;19908;-37
2020/12/02 07:24:52;;;;;;;;;;;1.30;99.90;;;;;;5097172;28;19962;-37
2020/12/02 07:27:20;;;;;;;;;;;1.30;99.90;;;;;;5096910;28;19915;-38
2020/12/02 07:29:46;;;;;;;;;;;1.40;99.90;;;;;;5096662;28;19908;-37
2020/12/02 07:32:13;;;;;;;;;;;1.30;99.90;;;;;;5096565;28;19919;-37
2020/12/02 07:34:40;;;;;;;;;;;1.30;99.90;;;;;;5096375;28;19923;-37
2020/12/02 07:37:08;;;;;;;;;;;1.30;99.90;;;;;;5096749;28;19908;-37
2020/12/02 07:39:33;;;;;;;;;;;1.40;99.90;;;;;;5096685;28;19911;-37
2020/12/02 07:42:31;;;;;;;;;;;1.40;99.90;;;;;;5096013;28;19920;-37
2020/12/02 07:45:03;;;;;;;;;;;1.40;99.90;;;;;;5074815;28;20297;-37
2020/12/02 07:47:28;;;;;;;;;;;1.40;99.90;;;;;;5073992;28;19916;-37
2020/12/02 07:49:59;;;;;;;;;;;1.40;99.90;;;;;;5073773;28;19908;-37
2020/12/02 07:52:29;;;;;;;;;;;1.50;99.90;;;;;;5074491;28;19999;-36
2020/12/02 07:54:55;;;;;;;;;;;1.60;99.90;;;;;;5073820;28;20011;-36
2020/12/02 07:57:22;;;;;;;;;;;1.60;99.90;;;;;;5073981;28;19976;-36
2020/12/02 08:00:04;;;;;;;;;;;1.50;99.90;;;;;;5057005;28;19956;-37
2020/12/02 08:02:37;;;;;;;;;;;1.60;99.90;;;;;;5073532;28;19912;-36
2020/12/02 08:05:03;;;;;;;;;;;1.60;99.90;;;;;;5073796;28;19916;-37
2020/12/02 08:07:48;;;;;;;;;;;1.60;99.90;;;;;;5073891;28;19909;-37
2020/12/02 08:10:21;;;;;;;;;;;1.70;99.90;;;;;;5059905;28;20365;-37
2020/12/02 08:12:47;;;;;;;;;;;1.70;99.90;;;;;;5073682;28;19958;-37
2020/12/02 08:15:13;;;;;;;;;;;1.80;99.90;;;;;;5073866;28;19966;-37
2020/12/02 08:17:40;;;;;;;;;;;1.80;99.90;;;;;;5073861;28;19908;-37
2020/12/02 08:20:24;;;;;;;;;;;1.80;99.90;;;;;;5081116;28;19908;-37
2020/12/02 08:22:51;;;;;;;;;;;1.80;99.90;;;;;;5095987;28;20320;-37
2020/12/02 08:25:35;;;;;;;;;;;1.80;99.90;;;;;;5095712;28;20285;-37
2020/12/02 08:28:07;;;;;;;;;;;1.80;99.90;;;;;;5095598;28;20002;-37
2020/12/02 08:30:33;;;;;;;;;;;1.80;99.90;;;;;;5095699;28;19908;-37
2020/12/02 08:33:01;;;;;;;;;;;1.80;99.90;;;;;;5095451;28;19961;-37
2020/12/02 08:35:29;;;;;;;;;;;1.80;99.90;;;;;;5095475;28;19908;-37
2020/12/02 08:37:57;;;;;;;;;;;1.90;99.90;;;;;;5093866;28;19973;-37
2020/12/02 08:40:25;;;;;;;;;;;2.00;99.90;;;;;;5095947;28;19908;-37
2020/12/02 08:42:52;;;;;;;;;;;2.00;99.90;;;;;;5094728;28;19920;-37
2020/12/02 08:45:21;;;;;;;;;;;2.10;99.90;;;;;;5095459;28;20037;-37
2020/12/02 08:47:54;;;;;;;;;;;2.20;99.90;;;;;;5095123;28;20014;-37
2020/12/02 08:50:22;;;;;;;;;;;2.20;99.90;;;;;;5095476;28;19915;-37
2020/12/02 08:52:52;;;;;;;;;;;2.20;99.90;;;;;;5095756;28;19912;-38
2020/12/02 08:55:21;;;;;;;;;;;2.20;99.90;;;;;;5095241;28;19912;-37
2020/12/02 08:57:47;;;;;;;;;;;2.30;99.90;;;;;;5095124;28;19908;-38
2020/12/02 09:00:16;;;;;;;;;;;2.40;99.90;;;;;;5094966;28;19998;-38
2020/12/02 09:02:42;;;;;;;;;;;2.50;99.90;;;;;;5094726;28;19916;-37
2020/12/02 09:05:07;;;;;;;;;;;2.60;99.90;;;;;;5095140;28;20390;-38
2020/12/02 09:07:33;;;;;;;;;;;2.60;99.90;;;;;;5095910;28;20333;-38
2020/12/02 09:09:59;;;;;;;;;;;2.70;99.90;;;;;;5093179;28;19908;-38
2020/12/02 09:12:24;;;;;;;;;;;2.80;99.90;;;;;;5093478;28;19908;-38
2020/12/02 09:14:50;;;;;;;;;;;2.80;99.90;;;;;;5092825;28;19912;-38
2020/12/02 09:17:16;;;;;;;;;;;2.90;99.90;;;;;;5094668;28;19914;-38
2020/12/02 09:19:42;;;;;;;;;;;2.90;99.90;;;;;;5095244;28;19908;-38
2020/12/02 09:22:07;;;;;;;;;;;2.80;99.90;;;;;;5094532;28;20273;-38
2020/12/02 09:24:33;;;;;;;;;;;2.70;99.90;;;;;;5094790;28;19908;-38
2020/12/02 09:26:59;;;;;;;;;;;2.60;99.90;;;;;;5094591;28;20277;-38
2020/12/02 09:29:24;;;;;;;;;;;2.60;99.90;;;;;;5094384;28;20455;-38
2020/12/02 09:31:50;;;;;;;;;;;2.60;99.90;;;;;;5092803;28;19915;-38
2020/12/02 09:34:17;;;;;;;;;;;2.70;99.90;;;;;;5094403;28;20374;-38
2020/12/02 09:36:44;;;;;;;;;;;2.60;99.90;;;;;;5094415;28;19911;-38
2020/12/02 09:39:10;;;;;;;;;;;2.50;99.90;;;;;;5092780;28;19958;-39
2020/12/02 09:41:35;;;;;;;;;;;2.50;99.90;;;;;;5092864;28;19912;-38
2020/12/02 09:44:08;;;;;;;;;;;2.40;99.90;;;;;;5094153;28;19916;-39
2020/12/02 09:46:35;;;;;;;;;;;2.40;99.90;;;;;;5093013;28;19912;-39
2020/12/02 09:49:01;;;;;;;;;;;2.30;99.90;;;;;;5093213;28;19958;-39
2020/12/02 09:51:28;;;;;;;;;;;2.20;99.90;;;;;;5094415;28;20320;-38
2020/12/02 09:53:55;;;;;;;;;;;2.20;99.90;;;;;;5094064;28;19915;-38
2020/12/02 09:56:21;;;;;;;;;;;2.20;99.90;;;;;;5094448;28;19915;-38
2020/12/02 09:58:46;;;;;;;;;;;2.20;99.90;;;;;;5093802;28;19908;-39
2020/12/02 10:01:20;;;;;;;;;;;2.20;99.90;;;;;;5094099;28;19908;-39
2020/12/02 10:03:46;;;;;;;;;;;2.20;99.90;;;;;;5109813;28;19968;-39
2020/12/02 10:06:17;;;;;;;;;;;2.20;99.90;;;;;;5093973;28;20003;-39
2020/12/02 10:09:01;;;;;;;;;;;2.10;99.90;;;;;;5092911;28;19963;-39
2020/12/02 10:11:51;;;;;;;;;;;2.10;99.90;;;;;;5094497;28;19999;-38
2020/12/02 10:14:31;;;;;;;;;;;2.20;99.90;;;;;;5093979;28;19916;-38
2020/12/02 10:17:06;;;;;;;;;;;2.30;99.90;;;;;;5126653;28;19915;-38
2020/12/02 10:19:34;;;;;;;;;;;2.30;99.90;;;;;;5093943;28;19951;-38
2020/12/02 10:22:06;;;;;;;;;;;2.30;99.90;;;;;;5093666;28;20251;-38
2020/12/02 10:24:37;;;;;;;;;;;2.30;99.90;;;;;;5093876;28;19960;-38
2020/12/02 10:27:22;;;;;;;;;;;2.40;99.90;;;;;;5094123;28;19908;-38
2020/12/02 10:29:47;;;;;;;;;;;2.30;99.90;;;;;;5093771;28;20392;-38
2020/12/02 10:32:22;;;;;;;;;;;2.30;99.90;;;;;;5093816;28;19909;-39
2020/12/02 10:34:48;;;;;;;;;;;2.20;99.90;;;;;;5093149;28;19912;-39
2020/12/02 10:37:33;;;;;;;;;;;2.30;99.90;;;;;;5093535;28;19908;-39
2020/12/02 10:39:59;;;;;;;;;;;2.30;99.90;;;;;;5092440;28;19974;-39
2020/12/02 10:42:43;;;;;;;;;;;2.30;99.90;;;;;;5093029;28;19942;-39
2020/12/02 10:45:09;;;;;;;;;;;2.40;99.90;;;;;;5093720;28;20234;-39
2020/12/02 10:48:07;;;;;;;;;;;2.50;99.90;;;;;;5093930;28;19908;-40
2020/12/02 10:50:34;;;;;;;;;;;2.50;99.90;;;;;;5071374;28;19908;-39
2020/12/02 10:53:02;;;;;;;;;;;2.50;99.90;;;;;;5071290;28;19977;-40
2020/12/02 10:55:30;;;;;;;;;;;2.60;99.90;;;;;;5071218;28;19919;-39
2020/12/02 10:58:05;;;;;;;;;;;2.70;99.90;;;;;;5073945;28;19983;-40
2020/12/02 11:00:31;;;;;;;;;;;2.60;99.90;;;;;;5075066;28;19916;-40
2020/12/02 11:03:15;;;;;;;;;;;2.60;99.90;;;;;;5074257;28;19923;-39
2020/12/02 11:05:43;;;;;;;;;;;2.60;99.90;;;;;;5074926;28;20051;-39
2020/12/02 11:08:16;;;;;;;;;;;2.60;99.90;;;;;;5074523;28;19908;-39
2020/12/02 11:10:42;;;;;;;;;;;2.60;99.90;;;;;;5074260;28;19908;-39
2020/12/02 11:13:12;;;;;;;;;;;2.50;99.90;;;;;;5074668;28;20285;-39
2020/12/02 11:15:45;;;;;;;;;;;2.60;99.90;;;;;;5074764;28;19999;-39
2020/12/02 11:18:18;;;;;;;;;;;2.60;99.90;;;;;;5074191;28;19952;-39
2020/12/02 11:20:46;;;;;;;;;;;2.70;99.90;;;;;;5074943;28;19920;-39
2020/12/02 11:23:11;;;;;;;;;;;2.60;99.90;;;;;;5074139;28;19987;-39
2020/12/02 11:25:56;;;;;;;;;;;2.60;99.90;;;;;;5080968;28;20385;-41
2020/12/02 11:28:21;;;;;;;;;;;2.60;99.90;;;;;;5097295;28;19915;-39
2020/12/02 11:30:47;;;;;;;;;;;2.50;99.90;;;;;;5096745;28;20282;-40
2020/12/02 11:33:38;;;;;;;;;;;2.50;99.90;;;;;;5129865;27;19923;-40
2020/12/02 11:36:03;;;;;;;;;;;2.30;99.90;;;;;;5096821;28;19908;-40
2020/12/02 11:38:41;;;;;;;;;;;2.30;99.90;;;;;;5094903;28;19915;-39
2020/12/02 11:41:18;;;;;;;;;;;2.20;99.90;;;;;;5096584;28;19965;-40
2020/12/02 11:43:48;;;;;;;;;;;2.20;99.90;;;;;;5076520;28;20278;-40
2020/12/02 11:46:16;;;;;;;;;;;2.30;99.90;;;;;;5076447;28;19909;-38
2020/12/02 11:48:54;;;;;;;;;;;2.40;99.90;;;;;;5076530;28;19909;-40
2020/12/02 11:51:36;;;;;;;;;;;2.40;99.90;;;;;;5076424;28;19939;-40
2020/12/02 11:54:04;;;;;;;;;;;2.50;99.90;;;;;;5076039;28;20297;-40
2020/12/02 11:56:32;;;;;;;;;;;2.60;99.90;;;;;;5076556;28;20297;-40
2020/12/02 11:58:57;;;;;;;;;;;2.80;99.90;;;;;;5074443;28;19927;-40
2020/12/02 12:01:32;;;;;;;;;;;2.80;99.90;;;;;;5075850;28;19908;-39
2020/12/02 12:04:16;;;;;;;;;;;2.90;99.90;;;;;;5074548;28;19920;-40
2020/12/02 12:06:43;;;;;;;;;;;2.80;99.90;;;;;;5074107;28;19916;-39
2020/12/02 12:09:12;;;;;;;;;;;2.80;99.90;;;;;;5074899;28;19999;-40
2020/12/02 12:11:39;;;;;;;;;;;2.70;99.90;;;;;;5075659;28;19908;-40
2020/12/02 12:14:26;;;;;;;;;;;2.70;99.90;;;;;;5075664;28;20350;-40
2020/12/02 12:17:03;;;;;;;;;;;2.80;99.90;;;;;;5075900;28;19908;-39
2020/12/02 12:19:36;;;;;;;;;;;2.80;99.90;;;;;;5075621;28;19908;-39
2020/12/02 12:22:08;;;;;;;;;;;2.80;99.90;;;;;;5073943;28;19975;-39
2020/12/02 12:24:34;;;;;;;;;;;2.80;99.90;;;;;;5076081;28;20316;-39
2020/12/02 12:26:59;;;;;;;;;;;2.80;99.90;;;;;;5075682;28;19909;-37
2020/12/02 12:29:25;;;;;;;;;;;3.00;99.90;;;;;;5075587;28;20259;-38
2020/12/02 12:31:56;;;;;;;;;;;2.90;99.90;;;;;;5074039;28;19915;-38
2020/12/02 12:34:40;;;;;;;;;;;2.90;99.90;;;;;;5075035;28;19931;-38
2020/12/02 12:37:12;;;;;;;;;;;2.90;99.90;;;;;;5075687;28;20015;-39
2020/12/02 12:39:40;;;;;;;;;;;2.80;99.90;;;;;;5075179;28;19999;-38
2020/12/02 12:42:10;;;;;;;;;;;2.80;99.90;;;;;;5079493;28;19920;-39
2020/12/02 12:44:37;;;;;;;;;;;2.80;99.90;;;;;;5095081;28;19917;-39
2020/12/02 12:47:18;;;;;;;;;;;2.80;99.90;;;;;;5094869;28;19962;-39
2020/12/02 12:49:43;;;;;;;;;;;2.70;99.90;;;;;;5094649;28;20393;-39
2020/12/02 12:52:13;;;;;;;;;;;2.70;99.90;;;;;;5093132;28;19908;-39
2020/12/02 12:54:38;;;;;;;;;;;2.60;99.90;;;;;;5093374;28;19908;-39
2020/12/02 12:57:05;;;;;;;;;;;2.70;99.90;;;;;;5094924;28;20278;-40
2020/12/02 12:59:33;;;;;;;;;;;2.70;99.90;;;;;;5094806;28;19908;-40
2020/12/02 13:01:58;;;;;;;;;;;2.70;99.90;;;;;;5094577;28;20270;-39
2020/12/02 13:04:25;;;;;;;;;;;2.70;99.90;;;;;;5095274;28;19923;-39
2020/12/02 13:06:53;;;;;;;;;;;2.60;99.90;;;;;;5094649;28;19927;-39
2020/12/02 13:09:29;;;;;;;;;;;2.60;99.90;;;;;;5095152;28;19915;-39
2020/12/02 13:12:02;;;;;;;;;;;2.60;99.90;;;;;;5094845;28;19951;-39
2020/12/02 13:14:34;;;;;;;;;;;2.60;99.90;;;;;;5094515;28;20396;-39
2020/12/02 13:17:05;;;;;;;;;;;2.50;99.90;;;;;;5094967;28;19908;-39
2020/12/02 13:19:37;;;;;;;;;;;2.50;99.90;;;;;;5094566;28;20052;-40
2020/12/02 13:22:06;;;;;;;;;;;2.50;99.90;;;;;;5094373;28;19908;-40
2020/12/02 13:24:32;;;;;;;;;;;2.40;99.90;;;;;;5094512;28;20341;-40
2020/12/02 13:27:00;;;;;;;;;;;2.50;99.90;;;;;;5094228;28;20010;-39
2020/12/02 13:29:35;;;;;;;;;;;2.50;99.90;;;;;;5094870;28;19923;-39
2020/12/02 13:32:03;;;;;;;;;;;2.50;99.90;;;;;;5094839;28;19914;-39
2020/12/02 13:34:29;;;;;;;;;;;2.40;99.90;;;;;;5092902;28;19908;-39
2020/12/02 13:36:54;;;;;;;;;;;2.40;99.90;;;;;;5094864;28;19915;-39
2020/12/02 13:39:20;;;;;;;;;;;2.30;99.90;;;;;;5092778;28;19931;-39
2020/12/02 13:41:50;;;;;;;;;;;2.20;99.90;;;;;;5094492;28;19920;-39
2020/12/02 13:44:17;;;;;;;;;;;2.20;99.90;;;;;;5094005;28;19921;-39
2020/12/02 13:46:43;;;;;;;;;;;2.20;99.90;;;;;;5094112;28;19909;-39
2020/12/02 13:49:11;;;;;;;;;;;2.20;99.90;;;;;;5092671;28;19915;-39
2020/12/02 13:51:45;;;;;;;;;;;2.20;99.90;;;;;;5094337;28;20269;-39
2020/12/02 13:54:25;;;;;;;;;;;2.20;99.90;;;;;;5093772;28;19959;-39
2020/12/02 13:56:57;;;;;;;;;;;2.10;99.90;;;;;;5094750;28;19908;-39
2020/12/02 13:59:31;;;;;;;;;;;2.00;99.90;;;;;;5094545;28;20346;-39
2020/12/02 14:02:02;;;;;;;;;;;2.00;99.90;;;;;;5093850;28;20410;-38
2020/12/02 14:04:31;;;;;;;;;;;2.00;99.90;;;;;;5094108;28;20030;-39
2020/12/02 14:06:57;;;;;;;;;;;2.00;99.90;;;;;;5092298;28;19912;-38
2020/12/02 14:09:26;;;;;;;;;;;2.10;99.90;;;;;;5092753;28;20057;-38
2020/12/02 14:11:54;;;;;;;;;;;2.10;99.90;;;;;;5093965;28;19908;-38
2020/12/02 14:14:28;;;;;;;;;;;2.00;99.90;;;;;;5094013;28;19915;-39
2020/12/02 14:16:55;;;;;;;;;;;2.00;99.90;;;;;;5094443;28;19930;-38
2020/12/02 14:19:21;;;;;;;;;;;2.00;99.90;;;;;;5093627;28;19912;-39
2020/12/02 14:21:58;;;;;;;;;;;1.90;99.90;;;;;;5094407;28;19934;-39
2020/12/02 14:24:24;;;;;;;;;;;1.90;99.90;;;;;;5093543;28;19916;-39
2020/12/02 14:26:49;;;;;;;;;;;1.80;99.90;;;;;;5091841;28;19935;-39
2020/12/02 14:29:15;;;;;;;;;;;1.80;99.90;;;;;;5092249;28;19954;-39
2020/12/02 14:31:41;;;;;;;;;;;1.80;99.90;;;;;;5095232;28;19915;-39
2020/12/02 14:34:06;;;;;;;;;;;1.70;99.90;;;;;;5097313;28;19908;-38
2020/12/02 14:36:32;;;;;;;;;;;1.70;99.90;;;;;;5098151;28;19999;-39
2020/12/02 14:38:58;;;;;;;;;;;1.60;99.90;;;;;;5098048;28;19934;-38
2020/12/02 14:41:24;;;;;;;;;;;1.60;99.90;;;;;;5096302;28;20400;-39
2020/12/02 14:43:49;;;;;;;;;;;1.60;99.90;;;;;;5097708;28;19920;-38